Time;durP1;ratioP1;P1;durP2;ratioP2;P2;SDS_P1;SDS_P2;PMS_P1;PMS_P2;Temp;Humidity;BMP_temperature;BMP_pressure;BME280_temperature;BME280_humidity;BME280_pressure;Samples;Min_cycle;Max_cycle;Signal;HPM_P1;HPM_P2
2022/06/10 00:01:54;;;;;;;3.00;1.85;;;;;;;25.78;38.36;100657.47;4212027;28;20100;-65
2022/06/10 00:03:56;;;;;;;2.83;1.90;;;;;;;25.75;38.27;100658.09;4213455;28;20058;-65
2022/06/10 00:06:04;;;;;;;2.97;1.92;;;;;;;25.75;38.28;100672.09;4212713;28;20106;-65
2022/06/10 00:08:08;;;;;;;3.70;2.15;;;;;;;25.76;37.99;100673.78;4214163;28;20073;-65
2022/06/10 00:10:12;;;;;;;3.30;2.22;;;;;;;25.75;38.21;100674.06;4214715;28;20039;-65
2022/06/10 00:12:14;;;;;;;5.80;2.10;;;;;;;25.74;37.95;100678.84;4213486;28;20048;-65
2022/06/10 00:14:15;;;;;;;2.65;2.42;;;;;;;25.73;38.21;100677.19;4214463;28;20081;-65
2022/06/10 00:16:19;;;;;;;12.40;2.78;;;;;;;25.69;38.04;100669.75;4214398;28;20040;-66
2022/06/10 00:18:29;;;;;;;10.25;2.58;;;;;;;25.74;38.21;100689.22;4209933;28;20024;-66
2022/06/10 00:20:31;;;;;;;2.90;1.80;;;;;;;25.74;38.21;100689.22;4206548;28;20036;-67
2022/06/10 00:22:36;;;;;;;6.95;2.10;;;;;;;25.72;38.17;100691.53;4214515;28;20047;-67
2022/06/10 00:24:37;;;;;;;2.17;1.92;;;;;;;25.71;38.13;100701.91;4208940;28;20085;-68
2022/06/10 00:26:38;;;;;;;3.67;2.05;;;;;;;25.71;38.18;100707.53;4212463;28;20553;-66
2022/06/10 00:28:43;;;;;;;4.72;2.20;;;;;;;25.70;38.18;100705.84;4209918;28;20430;-68
2022/06/10 00:30:45;;;;;;;5.90;2.03;;;;;;;25.70;38.09;100711.44;4213947;28;20052;-67
2022/06/10 00:32:46;;;;;;;6.00;1.98;;;;;;;25.67;38.09;100712.09;4214869;28;20027;-67
2022/06/10 00:34:48;;;;;;;4.32;2.10;;;;;;;25.69;37.88;100720.19;4212548;28;20360;-66
2022/06/10 00:36:49;;;;;;;5.05;3.15;;;;;;;25.67;37.98;100717.72;4213535;28;20048;-66
2022/06/10 00:38:51;;;;;;;4.40;2.13;;;;;;;25.65;38.12;100708.78;4213913;28;20566;-67
2022/06/10 00:40:55;;;;;;;4.97;2.10;;;;;;;25.65;37.97;100722.78;4214914;28;20089;-66
2022/06/10 00:42:57;;;;;;;8.45;2.97;;;;;;;25.66;37.79;100721.66;4212592;28;20093;-66
2022/06/10 00:45:26;;;;;;;6.75;2.50;;;;;;;25.64;37.99;100729.53;4214668;28;20036;-66
2022/06/10 00:47:38;;;;;;;5.57;2.30;;;;;;;25.64;38.05;100729.53;4213411;28;20044;-66
2022/06/10 00:49:40;;;;;;;4.25;2.13;;;;;;;25.65;38.11;100736.78;4212548;28;20036;-66
2022/06/10 00:51:49;;;;;;;7.85;2.20;;;;;;;25.65;38.27;100735.97;4213884;28;20105;-66
2022/06/10 00:53:59;;;;;;;6.20;2.63;;;;;;;25.63;38.32;100739.09;4198920;28;20046;-66
2022/06/10 00:56:06;;;;;;;4.78;2.25;;;;;;;25.64;38.04;100743.56;4201095;28;20040;-67
2022/06/10 00:58:35;;;;;;;4.30;2.10;;;;;;;25.62;38.32;100748.66;4213301;28;20098;-66
2022/06/10 01:00:38;;;;;;;6.30;2.25;;;;;;;25.62;37.93;100748.66;4211683;28;20044;-66
2022/06/10 01:02:40;;;;;;;12.50;2.38;;;;;;;25.61;38.22;100752.59;4214085;28;20093;-67
2022/06/10 01:04:42;;;;;;;14.60;2.95;;;;;;;25.62;38.21;100754.28;4213752;28;20040;-67
2022/06/10 01:06:43;;;;;;;10.45;2.58;;;;;;;25.62;38.34;100759.88;4214412;28;20044;-67
2022/06/10 01:08:48;;;;;;;9.40;2.33;;;;;;;25.62;38.19;100757.06;4213771;28;20040;-67
2022/06/10 01:10:54;;;;;;;9.63;2.20;;;;;;;25.60;38.00;100759.34;4209755;28;20089;-67
2022/06/10 01:13:11;;;;;;;7.90;2.30;;;;;;;25.51;38.26;100748.06;4213785;28;20086;-67
2022/06/10 01:15:23;;;;;;;7.75;2.38;;;;;;;25.61;38.04;100761.00;4216908;28;20376;-67
2022/06/10 01:17:42;;;;;;;5.47;2.10;;;;;;;25.59;38.23;100771.69;4215530;28;20036;-67
2022/06/10 01:20:05;;;;;;;8.05;2.35;;;;;;;25.57;38.25;100779.63;4217086;28;20048;-67
2022/06/10 01:22:45;;;;;;;5.95;2.28;;;;;;;25.57;38.00;100783.25;4216138;28;20444;-67
2022/06/10 01:25:02;;;;;;;5.40;2.00;;;;;;;25.59;37.91;100794.13;4216772;28;20040;-67
2022/06/10 01:29:56;;;;;;;5.80;2.05;;;;;;;25.54;38.02;100791.44;4206260;28;20544;-66
2022/06/10 01:32:08;;;;;;;8.63;2.03;;;;;;;25.56;38.10;100795.56;4216515;28;20600;-67
2022/06/10 01:34:34;;;;;;;7.93;2.38;;;;;;;25.54;37.94;100789.47;4216321;28;20074;-68
2022/06/10 01:36:50;;;;;;;5.25;2.13;;;;;;;25.55;37.81;100784.69;4216267;28;20097;-66
2022/06/10 01:39:21;;;;;;;5.20;1.75;;;;;;;25.53;38.21;100789.78;4212874;28;20040;-67
2022/06/10 01:42:05;;;;;;;7.07;2.03;;;;;;;25.51;37.99;100798.50;4206697;28;20052;-67
2022/06/10 01:44:31;;;;;;;7.00;2.13;;;;;;;25.54;37.92;100816.66;4205451;28;20139;-67
2022/06/10 01:46:39;;;;;;;4.80;1.88;;;;;;;25.50;37.55;100818.44;4215244;28;20045;-68
2022/06/10 01:48:41;;;;;;;4.82;2.58;;;;;;;25.53;37.95;100823.41;4214897;28;20032;-68
2022/06/10 01:50:47;;;;;;;4.68;2.22;;;;;;;25.52;37.71;100835.75;4216484;28;20044;-68
2022/06/10 01:52:56;;;;;;;3.53;1.85;;;;;;;25.51;37.90;100842.50;4216868;28;20040;-68
2022/06/10 01:55:06;;;;;;;3.30;1.95;;;;;;;25.50;37.76;100840.84;4215762;28;20541;-68
2022/06/10 01:57:32;;;;;;;5.95;2.35;;;;;;;25.48;37.70;100837.53;4216178;28;20043;-69
2022/06/10 01:59:46;;;;;;;4.28;1.92;;;;;;;25.44;37.66;100842.13;4213905;28;20044;-67
2022/06/10 02:01:55;;;;;;;5.40;2.25;;;;;;;25.46;37.79;100854.66;4207126;28;20048;-68
2022/06/10 02:04:05;;;;;;;4.35;1.73;;;;;;;25.48;37.48;100854.34;4210223;28;20044;-68
2022/06/10 02:07:04;;;;;;;4.32;1.77;;;;;;;25.45;37.70;100854.97;4217125;28;20040;-67
2022/06/10 02:09:13;;;;;;;2.65;2.22;;;;;;;25.48;37.46;100859.94;4144343;28;20108;-68
2022/06/10 02:11:30;;;;;;;5.20;1.77;;;;;;;25.47;37.42;100856.28;4188639;28;20065;-69
2022/06/10 02:14:00;;;;;;;5.75;2.35;;;;;;;25.44;37.43;100859.75;4215751;28;20463;-68
2022/06/10 02:16:08;;;;;;;5.38;2.03;;;;;;;25.46;37.55;100851.00;4209349;28;20044;-69
2022/06/10 02:18:14;;;;;;;6.43;2.00;;;;;;;25.45;37.73;100854.97;4215027;28;20047;-68
2022/06/10 02:20:22;;;;;;;8.32;2.13;;;;;;;25.41;37.52;100842.72;4216085;28;20432;-68
2022/06/10 02:22:35;;;;;;;3.15;1.75;;;;;;;25.43;37.61;100852.50;4214677;28;20107;-68
2022/06/10 02:24:49;;;;;;;2.30;1.63;;;;;;;25.43;37.38;100852.50;4215043;28;20044;-68
2022/06/10 02:26:52;;;;;;;1.73;1.63;;;;;;;25.41;37.38;100857.56;4215592;28;20093;-68
2022/06/10 02:28:56;;;;;;;4.13;1.75;;;;;;;25.43;37.45;100860.03;4216389;28;20510;-68
2022/06/10 02:31:15;;;;;;;4.57;1.87;;;;;;;25.40;37.30;100857.88;4216924;28;20453;-68
2022/06/10 02:33:20;;;;;;;2.38;1.65;;;;;;;25.41;37.47;100856.72;4215808;28;20426;-69
2022/06/10 02:35:22;;;;;;;3.97;1.88;;;;;;;25.40;37.18;100867.13;4199037;28;20040;-68
2022/06/10 02:37:39;;;;;;;3.83;1.85;;;;;;;25.40;37.42;100871.88;4210573;28;20112;-69
2022/06/10 02:39:45;;;;;;;2.47;1.63;;;;;;;25.41;37.15;100865.13;4199081;28;20101;-69
2022/06/10 02:41:52;;;;;;;4.10;1.80;;;;;;;25.40;36.94;100866.28;4215528;28;20603;-69
2022/06/10 02:44:02;;;;;;;4.78;1.90;;;;;;;25.39;37.24;100857.06;4202151;28;20040;-68
2022/06/10 02:46:11;;;;;;;1.90;1.67;;;;;;;25.39;37.21;100861.84;4218971;28;20113;-69
2022/06/10 02:48:39;;;;;;;2.72;1.42;;;;;;;25.32;37.36;100857.47;4198629;28;20040;-68
2022/06/10 02:50:44;;;;;;;3.67;1.60;;;;;;;25.35;37.15;100854.06;4203782;28;20040;-67
2022/06/10 02:52:46;;;;;;;4.65;2.13;;;;;;;25.28;37.10;100856.44;4215558;28;20098;-69
2022/06/10 02:54:53;;;;;;;3.13;1.80;;;;;;;25.35;37.14;100870.84;4211378;28;20584;-68
2022/06/10 02:57:10;;;;;;;3.58;1.50;;;;;;;25.35;36.91;100875.63;4199947;28;20037;-69
2022/06/10 03:02:08;;;;;;;4.18;1.60;;;;;;;25.31;36.96;100878.22;4216257;28;20089;-69
2022/06/10 03:04:23;;;;;;;2.08;1.50;;;;;;;25.33;37.12;100881.53;4228165;28;20039;-67
2022/06/10 03:06:33;;;;;;;;;;;;;;;25.31;37.27;100877.41;4230933;28;20035;-68
2022/06/10 03:09:21;;;;;;;3.78;1.58;;;;;;;25.34;36.94;100882.38;4212735;28;19919;-69
2022/06/10 03:11:40;;;;;;;1.60;1.50;;;;;;;25.34;36.95;100882.38;4210720;28;20086;-68
2022/06/10 03:14:08;;;;;;;3.75;2.22;;;;;;;25.31;37.05;100883.81;4215354;28;20048;-68
2022/06/10 03:16:28;;;;;;;2.67;1.63;;;;;;;25.24;36.92;100871.38;4201390;28;20040;-68
2022/06/10 03:18:37;;;;;;;4.05;2.05;;;;;;;25.31;36.74;100889.44;4198628;28;20044;-69
2022/06/10 03:20:57;;;;;;;4.82;1.50;;;;;;;25.29;37.11;100888.91;4207887;28;20040;-69
2022/06/10 03:23:27;;;;;;;3.33;1.70;;;;;;;25.25;36.87;100885.06;4214839;28;20089;-70
2022/06/10 03:25:33;;;;;;;1.85;1.25;;;;;;;25.26;36.99;100891.50;4213711;28;20040;-69
2022/06/10 03:27:47;;;;;;;1.83;1.40;;;;;;;25.27;36.67;100899.59;4215213;28;20047;-69
2022/06/10 03:30:06;;;;;;;2.83;1.50;;;;;;;25.26;36.95;100897.94;4214293;28;20043;-69
2022/06/10 03:32:24;;;;;;;3.20;1.30;;;;;;;25.22;36.78;100901.66;4209848;28;20097;-69
2022/06/10 03:34:37;;;;;;;5.43;1.70;;;;;;;25.23;36.77;100909.75;4213780;28;20093;-68
2022/06/10 03:36:39;;;;;;;2.47;1.52;;;;;;;25.24;36.76;100905.81;4213732;28;20044;-69
2022/06/10 03:38:48;;;;;;;3.80;1.52;;;;;;;25.24;36.61;100913.38;4212947;28;20109;-69
2022/06/10 03:40:59;;;;;;;1.73;1.27;;;;;;;25.23;36.50;100914.53;4214497;28;20445;-69
2022/06/10 03:43:06;;;;;;;3.83;1.50;;;;;;;25.11;36.45;100889.84;4213242;28;20040;-69
2022/06/10 03:45:18;;;;;;;3.70;1.70;;;;;;;25.19;36.65;100913.47;4213171;28;20433;-69
2022/06/10 03:47:37;;;;;;;2.95;1.55;;;;;;;25.20;36.79;100921.59;4213440;28;20040;-69
2022/06/10 03:49:49;;;;;;;1.98;1.42;;;;;;;25.21;36.46;100916.81;4215186;28;20105;-69
2022/06/10 03:51:51;;;;;;;2.65;1.63;;;;;;;25.20;36.70;100909.53;4215381;28;20108;-69
2022/06/10 03:53:53;;;;;;;3.22;1.52;;;;;;;25.19;36.71;100897.50;4213009;28;20086;-68
2022/06/10 03:55:57;;;;;;;2.03;1.40;;;;;;;25.13;36.46;100895.97;4224618;28;20048;-68
2022/06/10 03:57:59;;;;;;;1.35;1.25;;;;;;;25.13;36.53;100904.38;4222350;28;20039;-68
2022/06/10 04:00:01;;;;;;;1.52;1.40;;;;;;;25.18;36.47;100912.66;4223622;28;20062;-67
2022/06/10 04:02:02;;;;;;;1.70;1.10;;;;;;;25.17;36.62;100905.41;4219201;28;20032;-69
2022/06/10 04:04:04;;;;;;;2.60;1.50;;;;;;;25.17;36.54;100910.19;4215966;28;20434;-68
2022/06/10 04:06:06;;;;;;;2.88;1.55;;;;;;;25.16;36.38;100908.53;4213978;28;20477;-68
2022/06/10 04:08:10;;;;;;;2.33;1.30;;;;;;;25.14;36.65;100911.63;4214927;28;20082;-68
2022/06/10 04:10:17;;;;;;;2.05;1.40;;;;;;;25.13;36.37;100915.56;4214972;28;20032;-69
2022/06/10 04:12:21;;;;;;;1.58;1.40;;;;;;;25.15;36.65;100921.66;4213817;28;20117;-68
2022/06/10 04:14:23;;;;;;;2.08;1.52;;;;;;;25.15;36.58;100923.63;4213839;28;20040;-68
2022/06/10 04:16:27;;;;;;;1.70;1.10;;;;;;;25.14;36.37;100920.00;4214829;28;20093;-69
2022/06/10 04:18:39;;;;;;;1.92;1.40;;;;;;;25.12;36.32;100918.69;4215432;28;20090;-69
2022/06/10 04:20:43;;;;;;;1.55;1.08;;;;;;;25.08;36.46;100908.09;4214512;28;20069;-69
2022/06/10 04:22:45;;;;;;;3.05;1.33;;;;;;;25.15;36.28;100907.66;4219930;28;20032;-69
2022/06/10 04:24:46;;;;;;;1.85;1.13;;;;;;;25.14;36.38;100925.63;4213852;28;20040;-70
2022/06/10 04:26:48;;;;;;;1.98;1.20;;;;;;;25.14;36.23;100922.81;4211664;28;20036;-68
2022/06/10 04:28:52;;;;;;;3.45;1.27;;;;;;;25.01;36.47;100901.19;4213267;28;20040;-69
2022/06/10 04:30:55;;;;;;;2.75;1.35;;;;;;;25.13;36.29;100931.53;4214244;28;20475;-68
2022/06/10 04:33:00;;;;;;;3.20;1.02;;;;;;;25.13;36.26;100925.94;4214490;28;20040;-67
2022/06/10 04:35:01;;;;;;;3.15;1.50;;;;;;;25.10;36.13;100921.78;4204056;28;20114;-68
2022/06/10 04:37:04;;;;;;;1.80;1.40;;;;;;;25.10;36.25;100922.59;4197837;28;20040;-68
2022/06/10 04:39:06;;;;;;;0.90;0.90;;;;;;;25.09;35.85;100920.13;4201159;28;20494;-67
2022/06/10 04:41:07;;;;;;;2.85;1.27;;;;;;;25.09;36.38;100925.72;4214498;28;20433;-68
2022/06/10 04:43:09;;;;;;;1.50;1.13;;;;;;;25.09;36.08;100928.53;4214944;28;20078;-68
2022/06/10 04:45:11;;;;;;;2.45;1.08;;;;;;;25.07;36.03;100930.78;4214950;28;20414;-68
2022/06/10 04:47:13;;;;;;;2.42;1.20;;;;;;;25.07;36.14;100930.78;4214950;28;20040;-68
2022/06/10 04:49:14;;;;;;;2.30;1.30;;;;;;;24.99;36.11;100921.13;4216402;28;20097;-68
2022/06/10 04:51:16;;;;;;;3.80;1.25;;;;;;;25.05;36.29;100927.44;4216639;28;20101;-68
2022/06/10 04:53:20;;;;;;;2.50;1.80;;;;;;;24.81;35.90;100891.22;4218407;28;20032;-68
2022/06/10 04:55:22;;;;;;;3.65;1.30;;;;;;;25.04;35.94;100928.59;4217183;28;20036;-69
2022/06/10 04:57:23;;;;;;;2.28;1.20;;;;;;;25.05;36.06;100924.66;4214982;28;20376;-68
2022/06/10 04:59:25;;;;;;;2.45;1.30;;;;;;;25.04;35.78;100932.22;4218171;28;20044;-68
2022/06/10 05:01:29;;;;;;;1.50;1.10;;;;;;;25.01;35.88;100924.41;4216493;28;20045;-68
2022/06/10 05:03:35;;;;;;;1.15;0.90;;;;;;;25.04;36.01;100923.00;4206100;28;20048;-69
2022/06/10 05:05:40;;;;;;;3.10;1.02;;;;;;;25.02;35.92;100920.50;4217017;28;20046;-69
2022/06/10 05:07:43;;;;;;;;;;;;;;;25.00;36.09;100916.34;4206169;28;20044;-68
2022/06/10 05:09:45;;;;;;;1.95;1.20;;;;;;;25.03;35.43;100922.16;4201444;28;19986;-69
2022/06/10 05:11:46;;;;;;;2.58;1.38;;;;;;;24.77;35.77;100891.03;4200939;28;20037;-69
2022/06/10 05:13:47;;;;;;;1.90;1.30;;;;;;;25.00;35.54;100928.38;4209112;28;20103;-69
2022/06/10 05:15:50;;;;;;;1.17;1.02;;;;;;;25.00;35.38;100933.97;4217762;28;20032;-68
2022/06/10 05:17:52;;;;;;;2.00;1.17;;;;;;;24.93;35.28;100921.53;4217473;28;20032;-69
2022/06/10 05:19:53;;;;;;;1.40;1.25;;;;;;;24.88;35.42;100914.06;4217946;28;20495;-69
2022/06/10 05:21:55;;;;;;;1.13;1.02;;;;;;;24.94;35.49;100928.78;4216678;28;20040;-69
2022/06/10 05:23:56;;;;;;;1.33;1.10;;;;;;;24.95;35.63;100930.44;4210199;28;20028;-69
2022/06/10 05:25:57;;;;;;;1.25;1.15;;;;;;;24.94;35.64;100928.78;4200732;28;20426;-69
2022/06/10 05:28:00;;;;;;;2.35;1.00;;;;;;;24.88;35.44;100913.22;4200111;28;20102;-69
2022/06/10 05:30:05;;;;;;;1.15;0.80;;;;;;;24.92;35.49;100920.69;4203311;28;20060;-66
2022/06/10 05:32:06;;;;;;;1.92;1.00;;;;;;;24.91;35.34;100926.59;4217566;28;20081;-69
2022/06/10 05:36:28;;;;;;;2.03;1.20;;;;;;;24.85;35.36;100923.06;4218328;28;20085;-68
2022/06/10 05:38:32;;;;;;;1.02;0.90;;;;;;;24.83;35.40;100917.78;4217001;28;20101;-68
2022/06/10 05:40:37;;;;;;;1.23;1.05;;;;;;;24.90;35.41;100927.75;4201769;28;20473;-69
2022/06/10 05:42:39;;;;;;;3.15;1.27;;;;;;;24.91;35.31;100932.19;4203797;28;20033;-68
2022/06/10 05:44:44;;;;;;;1.48;1.05;;;;;;;24.88;35.22;100927.19;4217650;28;20081;-68
2022/06/10 05:46:45;;;;;;;1.50;1.00;;;;;;;24.89;35.28;100924.13;4215657;28;20460;-68
2022/06/10 05:48:50;;;;;;;2.30;1.02;;;;;;;24.72;35.22;100893.91;4216691;28;20036;-69
2022/06/10 05:50:56;;;;;;;1.65;1.05;;;;;;;24.88;35.93;100921.59;4215625;28;20081;-68
2022/06/10 05:53:00;;;;;;;2.25;1.08;;;;;;;24.88;35.49;100921.59;4216908;28;20032;-68
2022/06/10 05:55:04;;;;;;;;;;;;;;;24.87;35.68;100925.56;4213912;28;20036;-69
2022/06/10 05:57:06;;;;;;;3.25;1.10;;;;;;;24.92;35.92;100923.47;4213735;28;19981;-69
2022/06/10 05:59:07;;;;;;;1.30;1.10;;;;;;;24.94;35.96;100926.00;4216287;28;20078;-69
2022/06/10 06:01:11;;;;;;;1.00;1.00;;;;;;;24.94;35.83;100923.19;4217249;28;20097;-69
2022/06/10 06:03:13;;;;;;;1.55;0.98;;;;;;;24.92;35.95;100920.69;4216937;28;20442;-69
2022/06/10 06:05:15;;;;;;;2.15;0.95;;;;;;;24.91;35.93;100918.19;4216800;28;20044;-69
2022/06/10 06:07:31;;;;;;;2.50;1.17;;;;;;;24.91;35.89;100927.41;4216010;28;20044;-69
2022/06/10 06:09:33;;;;;;;1.88;1.20;;;;;;;24.91;36.06;100924.63;4215504;28;20113;-70
2022/06/10 06:11:34;;;;;;;1.40;1.10;;;;;;;24.89;35.70;100915.72;4215271;28;20070;-69
2022/06/10 06:13:36;;;;;;;2.13;0.90;;;;;;;24.90;35.91;100922.97;4216327;28;20044;-69
2022/06/10 06:15:39;;;;;;;1.10;1.00;;;;;;;24.89;36.21;100912.09;4217118;28;20475;-69
2022/06/10 06:17:41;;;;;;;2.25;1.25;;;;;;;24.91;35.78;100921.00;4216625;28;20016;-69
2022/06/10 06:19:43;;;;;;;1.75;0.98;;;;;;;24.74;36.02;100888.84;4216763;28;20036;-69
2022/06/10 06:21:50;;;;;;;1.17;1.08;;;;;;;24.81;36.27;100903.25;4216565;28;20044;-68
2022/06/10 06:23:54;;;;;;;0.98;0.90;;;;;;;24.89;36.43;100915.72;4216327;28;20040;-69
2022/06/10 06:25:55;;;;;;;1.58;1.13;;;;;;;24.89;36.23;100914.91;4216108;28;20036;-69
2022/06/10 06:27:58;;;;;;;2.03;1.00;;;;;;;24.90;36.55;100916.53;4204511;28;20109;-68
2022/06/10 06:30:03;;;;;;;1.92;1.00;;;;;;;24.91;36.33;100915.41;4201214;28;20078;-68
2022/06/10 06:32:07;;;;;;;;;;;;;;;24.90;36.64;100910.94;4216922;28;20449;-68
2022/06/10 06:34:08;;;;;;;1.20;0.80;;;;;;;24.94;36.21;100912.81;4216438;28;20359;-69
2022/06/10 06:36:26;;;;;;;0.70;0.70;;;;;;;24.85;36.14;100897.88;4215383;28;20036;-69
2022/06/10 06:38:37;;;;;;;0.95;0.82;;;;;;;24.92;36.29;100914.25;4215219;28;20487;-69
2022/06/10 06:40:40;;;;;;;1.52;0.95;;;;;;;24.91;35.99;100912.59;4214173;28;20044;-69
2022/06/10 06:42:41;;;;;;;2.13;1.10;;;;;;;24.90;35.99;100919.34;4216191;28;20097;-68
2022/06/10 06:44:44;;;;;;;1.13;1.02;;;;;;;24.88;36.21;100918.81;4214437;28;20097;-68
2022/06/10 06:46:45;;;;;;;0.95;0.95;;;;;;;24.89;35.83;100921.31;4214293;28;20037;-69
2022/06/10 06:48:47;;;;;;;1.30;0.98;;;;;;;24.88;36.19;100916.00;4215305;28;20104;-68
2022/06/10 06:50:50;;;;;;;2.63;0.80;;;;;;;24.80;35.88;100918.41;4215823;28;20044;-69
2022/06/10 06:52:53;;;;;;;1.25;1.13;;;;;;;24.87;35.82;100917.16;4215701;28;20040;-68
2022/06/10 06:54:54;;;;;;;2.40;0.93;;;;;;;24.76;35.82;100906.16;4215492;28;20105;-68
2022/06/10 06:56:57;;;;;;;1.02;0.93;;;;;;;24.84;35.95;100919.44;4215817;28;20470;-69
2022/06/10 06:59:01;;;;;;;0.82;0.82;;;;;;;24.81;35.92;100920.06;4215659;28;20040;-69
2022/06/10 07:01:02;;;;;;;0.80;0.80;;;;;;;24.82;35.87;100909.69;4199039;28;20110;-68
2022/06/10 07:03:05;;;;;;;1.27;1.13;;;;;;;24.74;35.84;100908.44;4199162;28;20097;-68
2022/06/10 07:05:07;;;;;;;0.98;0.80;;;;;;;24.80;35.63;100918.41;4210210;28;20040;-69
2022/06/10 07:07:08;;;;;;;1.10;1.00;;;;;;;24.80;35.63;100924.00;4215432;28;20044;-69
2022/06/10 07:09:13;;;;;;;2.97;0.90;;;;;;;24.80;35.54;100935.19;4215548;28;20073;-68
2022/06/10 07:11:17;;;;;;;1.48;0.93;;;;;;;24.79;35.91;100933.53;4214822;28;20044;-69
2022/06/10 07:13:18;;;;;;;1.33;0.80;;;;;;;24.72;35.50;100921.91;4215734;28;20032;-69
2022/06/10 07:15:23;;;;;;;1.00;0.90;;;;;;;24.79;35.91;100936.34;4207185;28;20549;-69
2022/06/10 07:17:24;;;;;;;1.45;0.73;;;;;;;24.79;35.70;100930.75;4198523;28;20050;-68
2022/06/10 07:19:28;;;;;;;3.13;0.73;;;;;;;24.78;35.49;100926.25;4198894;28;20040;-68
2022/06/10 07:21:30;;;;;;;2.00;0.82;;;;;;;24.78;35.90;100936.63;4207916;28;20028;-70
2022/06/10 07:23:31;;;;;;;1.45;1.10;;;;;;;24.78;35.63;100931.84;4212228;28;20176;-68
2022/06/10 07:25:33;;;;;;;0.80;0.80;;;;;;;24.77;35.77;100923.78;4215532;28;20044;-69
2022/06/10 07:27:36;;;;;;;1.00;0.90;;;;;;;24.74;35.61;100913.19;4213792;28;20112;-69
2022/06/10 07:29:38;;;;;;;1.08;1.00;;;;;;;24.76;35.55;100925.75;4214288;28;20533;-68
2022/06/10 07:31:41;;;;;;;0.70;0.70;;;;;;;24.75;35.83;100918.50;4214034;28;20480;-69
2022/06/10 07:33:43;;;;;;;1.05;0.95;;;;;;;24.75;35.88;100924.09;4202111;28;20044;-69
2022/06/10 07:35:44;;;;;;;1.10;1.00;;;;;;;24.72;35.86;100913.50;4207394;28;20074;-68
2022/06/10 07:37:50;;;;;;;1.42;0.93;;;;;;;24.68;35.53;100909.66;4213775;28;20040;-68
2022/06/10 07:39:51;;;;;;;1.08;0.88;;;;;;;24.72;36.00;100916.31;4214158;28;20036;-68
2022/06/10 07:42:02;;;;;;;1.15;0.95;;;;;;;24.73;35.65;100912.34;4212925;28;20446;-68
2022/06/10 07:44:04;;;;;;;0.85;0.85;;;;;;;24.71;35.87;100914.66;4215251;28;20036;-69
2022/06/10 07:46:09;;;;;;;0.90;0.80;;;;;;;24.72;35.96;100921.06;4214365;28;20093;-69
2022/06/10 07:48:13;;;;;;;;;;;;;;;24.69;36.09;100922.50;4213100;28;20065;-69
2022/06/10 07:50:14;;;;;;;1.42;1.30;;;;;;;24.73;35.62;100923.53;4214841;28;19916;-69
2022/06/10 07:52:15;;;;;;;1.58;0.80;;;;;;;24.70;35.58;100918.59;4212694;28;20592;-69
2022/06/10 07:54:20;;;;;;;1.63;0.90;;;;;;;24.72;36.00;100916.31;4214195;28;20040;-69
2022/06/10 07:56:24;;;;;;;1.20;0.90;;;;;;;24.70;36.00;100924.19;4212621;28;20044;-68
2022/06/10 07:58:29;;;;;;;1.00;0.90;;;;;;;24.61;36.05;100916.81;4213930;28;20384;-69
2022/06/10 08:00:31;;;;;;;0.80;0.80;;;;;;;24.69;36.07;100930.91;4213708;28;20036;-68
2022/06/10 08:02:32;;;;;;;0.88;0.60;;;;;;;24.69;35.94;100933.69;4213438;28;20040;-68
2022/06/10 08:04:34;;;;;;;1.50;0.73;;;;;;;24.68;35.96;100940.44;4213459;28;20098;-69
2022/06/10 08:06:40;;;;;;;0.93;0.85;;;;;;;24.66;36.02;100934.31;4201401;28;20098;-69
2022/06/10 08:08:41;;;;;;;1.13;1.02;;;;;;;24.67;35.88;100951.94;4213592;28;20040;-69
2022/06/10 08:10:43;;;;;;;0.77;0.77;;;;;;;24.66;35.96;100948.31;4213696;28;20487;-68
2022/06/10 08:12:53;;;;;;;0.80;0.80;;;;;;;24.65;35.77;100946.66;4213581;28;20043;-68
2022/06/10 08:15:01;;;;;;;0.80;0.80;;;;;;;24.61;36.04;100941.97;4213854;28;20095;-69
2022/06/10 08:17:06;;;;;;;0.77;0.70;;;;;;;24.60;36.05;100946.72;4212566;28;20434;-69
2022/06/10 08:19:08;;;;;;;1.05;0.80;;;;;;;24.65;35.91;100957.84;4213915;28;20101;-68
2022/06/10 08:23:33;;;;;;;0.73;0.73;;;;;;;24.64;36.02;100958.97;4213880;28;20113;-69
2022/06/10 08:25:34;;;;;;;0.77;0.75;;;;;;;24.56;36.02;100945.69;4212455;28;20105;-69
2022/06/10 08:27:36;;;;;;;1.23;0.80;;;;;;;24.54;35.84;100936.75;4213228;28;20418;-69
2022/06/10 08:29:38;;;;;;;0.85;0.85;;;;;;;24.63;35.88;100950.88;4213484;28;20093;-68
2022/06/10 08:31:39;;;;;;;1.10;1.00;;;;;;;24.63;36.21;100957.31;4212676;28;20044;-68
2022/06/10 08:33:42;;;;;;;1.08;0.80;;;;;;;24.61;35.91;100948.41;4213700;28;20101;-69
2022/06/10 08:35:43;;;;;;;1.05;0.70;;;;;;;24.55;35.75;100939.25;4210112;28;20513;-69
2022/06/10 08:37:44;;;;;;;1.17;0.77;;;;;;;24.61;35.83;100951.22;4204819;28;20441;-68
2022/06/10 08:39:46;;;;;;;0.75;0.75;;;;;;;24.59;36.09;100950.66;4213394;28;20097;-68
2022/06/10 08:42:09;;;;;;;0.75;0.75;;;;;;;24.58;35.86;100949.00;4214425;28;20063;-68
2022/06/10 08:44:35;;;;;;;1.00;0.90;;;;;;;24.57;35.95;100950.97;4214286;28;20040;-68
2022/06/10 08:47:12;;;;;;;0.70;0.70;;;;;;;24.57;35.89;100952.94;4213434;28;20404;-68
2022/06/10 08:49:19;;;;;;;;;;;;;;;24.56;35.92;100945.69;4213650;28;20052;-68
2022/06/10 08:51:42;;;;;;;0.88;0.88;;;;;;;24.60;35.66;100943.91;4213373;28;19989;-68
2022/06/10 08:54:12;;;;;;;2.20;0.70;;;;;;;24.59;35.76;100947.88;4210019;28;20105;-68
2022/06/10 08:56:32;;;;;;;0.90;0.90;;;;;;;24.59;35.87;100950.66;4203265;28;20093;-68
2022/06/10 08:58:56;;;;;;;1.00;0.90;;;;;;;24.57;36.01;100948.19;4213548;28;20036;-68
2022/06/10 09:01:05;;;;;;;1.05;0.90;;;;;;;24.57;36.16;100952.94;4214119;28;20036;-68
2022/06/10 09:03:17;;;;;;;1.10;1.00;;;;;;;24.56;36.13;100948.50;4214376;28;20040;-68
2022/06/10 09:05:28;;;;;;;1.02;0.82;;;;;;;24.54;35.81;100954.38;4214154;28;20093;-68
2022/06/10 09:07:38;;;;;;;1.20;0.90;;;;;;;24.54;36.07;100956.34;4213744;28;20097;-68
2022/06/10 09:09:46;;;;;;;0.80;0.80;;;;;;;24.46;35.98;100940.25;4210869;28;20048;-68
2022/06/10 09:12:03;;;;;;;0.77;0.77;;;;;;;24.53;35.97;100951.91;4206569;28;20097;-68
2022/06/10 09:14:10;;;;;;;0.80;0.80;;;;;;;24.54;36.02;100953.56;4214153;28;20109;-68
2022/06/10 09:16:24;;;;;;;1.15;0.80;;;;;;;24.51;36.19;100951.34;4213207;28;20036;-68
2022/06/10 09:18:39;;;;;;;1.75;0.93;;;;;;;24.52;36.01;100955.84;4202325;28;20040;-68
2022/06/10 09:20:53;;;;;;;1.38;0.68;;;;;;;24.50;35.67;100958.09;4214130;28;20036;-68
2022/06/10 09:23:15;;;;;;;0.82;0.82;;;;;;;24.50;36.00;100963.69;4211988;28;20040;-68
2022/06/10 09:25:32;;;;;;;1.65;1.00;;;;;;;24.49;36.17;100967.63;4209019;28;20098;-68
2022/06/10 09:27:36;;;;;;;1.80;0.98;;;;;;;24.52;35.80;100972.63;4204339;28;20039;-68
2022/06/10 09:29:38;;;;;;;1.00;0.90;;;;;;;24.50;35.90;100964.50;4213048;28;20048;-68
2022/06/10 09:31:48;;;;;;;0.77;0.70;;;;;;;24.50;36.00;100969.28;4213962;28;20398;-68
2022/06/10 09:34:16;;;;;;;1.90;0.73;;;;;;;24.46;36.04;100968.22;4214990;28;20044;-68
2022/06/10 09:36:37;;;;;;;0.90;0.90;;;;;;;24.49;36.12;100978.81;4194751;28;20044;-69
2022/06/10 09:38:50;;;;;;;0.70;0.70;;;;;;;24.49;35.98;100978.81;4215729;28;20044;-69
2022/06/10 09:41:07;;;;;;;0.75;0.70;;;;;;;24.42;35.78;100973.63;4216441;28;20048;-68
2022/06/10 09:43:33;;;;;;;0.65;0.65;;;;;;;24.47;35.98;100981.09;4211174;28;20402;-69
2022/06/10 09:45:42;;;;;;;0.90;0.90;;;;;;;24.40;35.94;100961.88;4200252;28;20037;-68
2022/06/10 09:48:08;;;;;;;0.80;0.80;;;;;;;24.45;35.72;100969.38;4213546;28;20080;-68
2022/06/10 09:50:28;;;;;;;1.42;0.75;;;;;;;24.46;35.91;100976.63;4216871;28;20121;-69
2022/06/10 09:53:06;;;;;;;0.77;0.70;;;;;;;24.42;35.83;100964.38;4214655;28;20040;-69
2022/06/10 09:55:32;;;;;;;0.80;0.80;;;;;;;24.45;35.83;100977.75;4214895;28;20040;-69
2022/06/10 09:57:48;;;;;;;0.65;0.65;;;;;;;24.45;36.10;100978.59;4215697;28;20044;-69
2022/06/10 10:00:31;;;;;;;0.70;0.68;;;;;;;24.41;35.97;100987.88;4216672;28;20036;-69
2022/06/10 10:02:38;;;;;;;0.60;0.60;;;;;;;24.43;35.82;100989.25;4171405;28;20044;-69
2022/06/10 10:05:04;;;;;;;0.80;0.70;;;;;;;24.41;36.03;100999.06;4186378;28;20373;-68
2022/06/10 10:07:26;;;;;;;1.40;0.80;;;;;;;24.41;36.15;100988.72;4199268;28;20044;-69
2022/06/10 10:10:02;;;;;;;0.90;0.82;;;;;;;24.38;35.80;100994.09;4199979;28;20544;-69